createdAt,value
2018-05-06T00:00:25.436Z,13.11
2018-05-06T00:01:25.651Z,13.09
2018-05-06T00:02:25.879Z,13.04
2018-05-06T00:03:26.105Z,13.08
2018-05-06T00:04:26.327Z,13.09
2018-05-06T00:05:26.551Z,13.04
2018-05-06T00:06:26.779Z,13.09
2018-05-06T00:07:27.006Z,13.04
2018-05-06T00:08:27.232Z,13.01
2018-05-06T00:09:27.503Z,12.97
2018-05-06T00:10:27.694Z,13.01
2018-05-06T00:11:27.923Z,12.95
2018-05-06T00:12:28.151Z,12.98
2018-05-06T00:13:28.379Z,12.91
2018-05-06T00:14:28.605Z,12.85
2018-05-06T00:15:28.836Z,12.87
2018-05-06T00:16:29.060Z,12.85
2018-05-06T00:17:29.289Z,12.90
2018-05-06T00:18:29.514Z,12.75
2018-05-06T00:19:29.745Z,12.78
2018-05-06T00:20:29.970Z,12.75
2018-05-06T00:21:30.196Z,12.68
2018-05-06T00:22:30.424Z,12.68
2018-05-06T00:23:30.651Z,12.76
2018-05-06T00:24:30.880Z,12.68
2018-05-06T00:25:31.111Z,12.65
2018-05-06T00:26:31.333Z,12.62
2018-05-06T00:27:31.569Z,12.61
2018-05-06T00:28:31.787Z,12.58
2018-05-06T00:29:32.015Z,12.62
2018-05-06T00:30:32.239Z,12.58
2018-05-06T00:31:32.462Z,12.64
2018-05-06T00:32:32.693Z,12.61
2018-05-06T00:33:32.970Z,12.54
2018-05-06T00:34:33.150Z,12.65
2018-05-06T00:35:33.379Z,12.68
2018-05-06T00:36:33.600Z,12.61
2018-05-06T00:37:33.829Z,12.58
2018-05-06T00:38:34.055Z,12.50
2018-05-06T00:39:34.282Z,12.46
2018-05-06T00:40:34.509Z,12.49
2018-05-06T00:41:34.741Z,12.58
2018-05-06T00:42:34.962Z,12.45
2018-05-06T00:43:35.197Z,12.45
2018-05-06T00:44:35.417Z,12.43
2018-05-06T00:45:35.643Z,12.43
2018-05-06T00:46:35.872Z,12.42
2018-05-06T00:47:36.098Z,12.37
2018-05-06T00:48:36.326Z,12.40
2018-05-06T00:49:36.553Z,12.29
2018-05-06T00:50:36.780Z,12.39
2018-05-06T00:51:37.006Z,12.32
2018-05-06T00:52:37.233Z,12.25
2018-05-06T00:53:37.458Z,12.25
2018-05-06T00:54:37.694Z,12.37
2018-05-06T00:55:37.909Z,12.39
2018-05-06T00:56:38.135Z,12.39
2018-05-06T00:57:38.394Z,12.28
2018-05-06T00:58:38.602Z,12.37
2018-05-06T00:59:38.801Z,12.36
2018-05-06T01:00:39.026Z,12.27
2018-05-06T01:01:39.255Z,12.27
2018-05-06T01:02:39.482Z,12.32
2018-05-06T01:03:39.707Z,12.25
2018-05-06T01:04:39.930Z,12.27
2018-05-06T01:05:40.153Z,12.31
2018-05-06T01:06:40.380Z,12.32
2018-05-06T01:07:40.612Z,12.25
2018-05-06T01:08:40.836Z,12.39
2018-05-06T01:09:41.068Z,12.22
2018-05-06T01:10:41.291Z,12.27
2018-05-06T01:11:41.516Z,12.24
2018-05-06T01:12:41.746Z,12.21
2018-05-06T01:13:41.970Z,12.20
2018-05-06T01:14:42.204Z,12.20
2018-05-06T01:15:42.423Z,12.22
2018-05-06T01:16:42.657Z,12.24
2018-05-06T01:17:42.880Z,12.18
2018-05-06T01:18:43.107Z,12.12
2018-05-06T01:19:43.330Z,12.18
2018-05-06T01:20:43.558Z,12.15
2018-05-06T01:21:43.793Z,12.12
2018-05-06T01:22:44.018Z,12.00
2018-05-06T01:23:44.244Z,12.10
2018-05-06T01:24:44.470Z,12.02
2018-05-06T01:25:44.701Z,11.91
2018-05-06T01:26:44.928Z,12.06
2018-05-06T01:27:45.147Z,11.97
2018-05-06T01:28:45.376Z,11.97
2018-05-06T01:29:45.603Z,11.99
2018-05-06T01:30:45.830Z,11.95
2018-05-06T01:31:46.057Z,11.91
2018-05-06T01:32:46.282Z,11.94
2018-05-06T01:33:46.510Z,11.97
2018-05-06T01:34:46.737Z,11.94
2018-05-06T01:35:46.968Z,11.83
2018-05-06T01:36:47.190Z,11.83
2018-05-06T01:37:47.418Z,11.77
2018-05-06T01:38:47.645Z,11.68
2018-05-06T01:39:47.873Z,11.75
2018-05-06T01:40:48.102Z,11.62
2018-05-06T01:41:48.326Z,11.52
2018-05-06T01:42:48.555Z,11.55
2018-05-06T01:43:48.781Z,11.63
2018-05-06T01:44:49.014Z,11.48
2018-05-06T01:45:49.235Z,11.45
2018-05-06T01:46:49.464Z,11.43
2018-05-06T01:47:49.690Z,11.52
2018-05-06T01:48:49.918Z,11.44
2018-05-06T01:49:50.142Z,11.51
2018-05-06T01:50:50.369Z,11.35
2018-05-06T01:51:50.598Z,11.41
2018-05-06T01:52:50.817Z,11.41
2018-05-06T01:53:51.047Z,11.37
2018-05-06T01:54:51.267Z,11.32
2018-05-06T01:55:51.494Z,11.36
2018-05-06T01:56:51.716Z,11.23
2018-05-06T01:57:51.941Z,11.35
2018-05-06T01:58:52.166Z,11.33
2018-05-06T01:59:52.392Z,11.26
2018-05-06T02:00:52.737Z,11.12
2018-05-06T02:01:52.850Z,11.14
2018-05-06T02:02:53.071Z,11.12
2018-05-06T02:03:53.300Z,11.05
2018-05-06T02:04:53.520Z,11.00
2018-05-06T02:05:53.749Z,10.97
2018-05-06T02:06:53.975Z,11.14
2018-05-06T02:07:54.199Z,11.04
2018-05-06T02:08:54.429Z,11.17
2018-05-06T02:09:54.654Z,11.22
2018-05-06T02:10:54.878Z,11.00
2018-05-06T02:11:55.108Z,11.02
2018-05-06T02:12:55.329Z,11.04
2018-05-06T02:13:55.555Z,10.97
2018-05-06T02:14:55.783Z,10.84
2018-05-06T02:15:56.006Z,10.84
2018-05-06T02:16:56.234Z,10.94
2018-05-06T02:17:56.464Z,10.89
2018-05-06T02:18:56.693Z,10.82
2018-05-06T02:19:56.922Z,10.81
2018-05-06T02:20:57.143Z,10.72
2018-05-06T02:21:57.370Z,10.74
2018-05-06T02:22:57.604Z,10.74
2018-05-06T02:23:57.821Z,10.69
2018-05-06T02:24:58.050Z,10.61
2018-05-06T02:25:58.276Z,10.59
2018-05-06T02:26:58.503Z,10.54
2018-05-06T02:27:58.730Z,10.40
2018-05-06T02:28:58.978Z,10.33
2018-05-06T02:29:59.183Z,10.38
2018-05-06T02:30:59.410Z,10.42
2018-05-06T02:31:59.639Z,10.44
2018-05-06T02:32:59.870Z,10.30
2018-05-06T02:34:00.111Z,10.35
2018-05-06T02:35:00.316Z,10.33
2018-05-06T02:36:00.556Z,10.30
2018-05-06T02:37:00.767Z,10.30
2018-05-06T02:38:00.994Z,10.23
2018-05-06T02:39:01.220Z,10.25
2018-05-06T02:40:01.449Z,10.33
2018-05-06T02:41:01.667Z,10.31
2018-05-06T02:42:01.902Z,10.34
2018-05-06T02:43:02.138Z,10.40
2018-05-06T02:44:02.351Z,10.40
2018-05-06T02:45:02.577Z,10.44
2018-05-06T02:46:02.803Z,10.40
2018-05-06T02:47:03.047Z,10.46
2018-05-06T02:48:03.254Z,10.34
2018-05-06T02:49:03.482Z,10.42
2018-05-06T02:50:03.704Z,10.38
2018-05-06T02:51:03.931Z,10.40
2018-05-06T02:52:04.158Z,10.34
2018-05-06T02:53:04.386Z,10.38
2018-05-06T02:54:04.608Z,10.44
2018-05-06T02:55:04.834Z,10.40
2018-05-06T02:56:05.059Z,10.49
2018-05-06T02:57:05.288Z,10.40
2018-05-06T02:58:05.518Z,10.35
2018-05-06T02:59:05.744Z,10.37
2018-05-06T03:00:05.968Z,10.35
2018-05-06T03:01:06.197Z,10.25
2018-05-06T03:02:06.423Z,10.26
2018-05-06T03:03:06.650Z,10.31
2018-05-06T03:04:06.875Z,10.19
2018-05-06T03:05:07.101Z,10.30
2018-05-06T03:06:07.328Z,10.25
2018-05-06T03:07:07.553Z,10.19
2018-05-06T03:08:07.779Z,10.13
2018-05-06T03:09:08.008Z,10.22
2018-05-06T03:10:08.236Z,10.05
2018-05-06T03:11:08.459Z,10.02
2018-05-06T03:12:08.687Z,10.02
2018-05-06T03:13:08.914Z,10.01
2018-05-06T03:14:09.142Z,10.05
2018-05-06T03:15:09.368Z,10.07
2018-05-06T03:16:09.597Z,9.92
2018-05-06T03:17:09.823Z,9.84
2018-05-06T03:18:10.049Z,9.82
2018-05-06T03:19:10.277Z,9.76
2018-05-06T03:20:10.501Z,9.82
2018-05-06T03:21:10.731Z,9.83
2018-05-06T03:22:10.956Z,9.79
2018-05-06T03:23:11.185Z,9.61
2018-05-06T03:24:11.411Z,9.58
2018-05-06T03:25:11.638Z,9.55
2018-05-06T03:26:11.863Z,9.55
2018-05-06T03:27:12.089Z,9.44
2018-05-06T03:28:12.316Z,9.39
2018-05-06T03:29:12.541Z,9.39
2018-05-06T03:30:12.769Z,9.37
2018-05-06T03:31:12.991Z,9.39
2018-05-06T03:32:13.220Z,9.39
2018-05-06T03:33:13.445Z,9.46
2018-05-06T03:34:13.672Z,9.37
2018-05-06T03:35:13.901Z,9.48
2018-05-06T03:36:14.126Z,9.40
2018-05-06T03:37:14.350Z,9.41
2018-05-06T03:38:14.578Z,9.41
2018-05-06T03:39:14.804Z,9.39
2018-05-06T03:40:15.036Z,9.46
2018-05-06T03:41:15.257Z,9.36
2018-05-06T03:42:15.484Z,9.48
2018-05-06T03:43:15.718Z,9.37
2018-05-06T03:44:15.941Z,9.32
2018-05-06T03:45:16.165Z,9.32
2018-05-06T03:46:16.397Z,9.48
2018-05-06T03:47:16.619Z,9.34
2018-05-06T03:48:16.843Z,9.44
2018-05-06T03:49:17.069Z,9.37
2018-05-06T03:50:17.296Z,9.41
2018-05-06T03:51:17.523Z,9.37
2018-05-06T03:52:17.751Z,9.39
2018-05-06T03:53:18.480Z,9.44
2018-05-06T03:54:18.205Z,9.39
2018-05-06T03:55:18.431Z,9.36
2018-05-06T03:56:18.656Z,9.29
2018-05-06T03:57:18.884Z,9.25
2018-05-06T03:58:19.103Z,9.34
2018-05-06T03:59:19.339Z,9.40
2018-05-06T04:00:19.654Z,9.40
2018-05-06T04:01:19.793Z,9.44
2018-05-06T04:02:20.019Z,9.23
2018-05-06T04:03:20.245Z,9.22
2018-05-06T04:04:20.470Z,9.22
2018-05-06T04:05:20.697Z,9.21
2018-05-06T04:06:20.924Z,9.25
2018-05-06T04:07:21.150Z,9.28
2018-05-06T04:08:21.383Z,9.39
2018-05-06T04:09:21.602Z,9.56
2018-05-06T04:10:21.829Z,9.80
2018-05-06T04:11:22.061Z,10.09
2018-05-06T04:12:22.284Z,10.31
2018-05-06T04:13:22.509Z,10.51
2018-05-06T04:14:22.735Z,10.67
2018-05-06T04:15:22.963Z,10.96
2018-05-06T04:16:23.189Z,11.14
2018-05-06T04:17:23.416Z,11.32
2018-05-06T04:18:23.642Z,11.47
2018-05-06T04:19:23.870Z,11.65
2018-05-06T04:20:24.096Z,11.88
2018-05-06T04:21:24.325Z,11.72
2018-05-06T04:22:24.555Z,12.07
2018-05-06T04:23:24.777Z,12.28
2018-05-06T04:24:25.007Z,12.25
2018-05-06T04:25:25.246Z,12.61
2018-05-06T04:26:25.457Z,12.75
2018-05-06T04:27:25.685Z,13.03
2018-05-06T04:28:25.918Z,13.22
2018-05-06T04:29:26.147Z,13.23
2018-05-06T04:30:26.372Z,13.52
2018-05-06T04:31:26.598Z,13.57
2018-05-06T04:32:26.829Z,13.50
2018-05-06T04:33:27.061Z,13.59
2018-05-06T04:34:27.285Z,13.74
2018-05-06T04:35:27.515Z,13.90
2018-05-06T04:36:27.741Z,14.11
2018-05-06T04:37:27.973Z,14.12
2018-05-06T04:38:28.198Z,14.35
2018-05-06T04:39:28.427Z,14.41
2018-05-06T04:40:28.656Z,14.60
2018-05-06T04:41:28.884Z,14.70
2018-05-06T04:42:29.118Z,14.94
2018-05-06T04:43:29.349Z,14.85
2018-05-06T04:44:29.572Z,14.73
2018-05-06T04:45:29.807Z,14.91
2018-05-06T04:46:30.035Z,15.25
2018-05-06T04:47:30.266Z,15.35
2018-05-06T04:48:30.496Z,15.57
2018-05-06T04:49:30.733Z,15.84
2018-05-06T04:50:30.955Z,16.09
2018-05-06T04:51:31.185Z,16.33
2018-05-06T04:52:31.413Z,16.36
2018-05-06T04:53:31.646Z,16.42
2018-05-06T04:54:31.875Z,16.41
2018-05-06T04:55:32.103Z,16.24
2018-05-06T04:56:32.378Z,16.13
2018-05-06T04:57:32.576Z,16.15
2018-05-06T04:58:32.803Z,16.31
2018-05-06T04:59:33.035Z,16.64
2018-05-06T05:00:33.265Z,16.60
2018-05-06T05:01:33.495Z,16.71
2018-05-06T05:02:33.731Z,16.65
2018-05-06T05:03:33.957Z,16.89
2018-05-06T05:04:34.186Z,16.93
2018-05-06T05:05:34.415Z,16.69
2018-05-06T05:06:34.647Z,17.29
2018-05-06T05:07:34.878Z,17.31
2018-05-06T05:08:35.108Z,17.54
2018-05-06T05:09:35.395Z,17.87
2018-05-06T05:10:35.574Z,18.07
2018-05-06T05:11:35.807Z,18.05
2018-05-06T05:12:36.032Z,18.60
2018-05-06T05:13:36.261Z,19.15
2018-05-06T05:14:36.494Z,19.29
2018-05-06T05:15:36.726Z,19.52
2018-05-06T05:16:36.961Z,19.81
2018-05-06T05:17:37.192Z,19.84
2018-05-06T05:18:37.424Z,19.69
2018-05-06T05:19:37.656Z,19.92
2018-05-06T05:20:37.888Z,20.39
2018-05-06T05:21:38.120Z,20.84
2018-05-06T05:22:38.352Z,21.07
2018-05-06T05:23:38.591Z,20.95
2018-05-06T05:24:38.818Z,21.32
2018-05-06T05:25:39.094Z,21.25
2018-05-06T05:26:39.284Z,21.25
2018-05-06T05:27:39.518Z,21.02
2018-05-06T05:28:39.753Z,21.45
2018-05-06T05:29:39.986Z,21.36
2018-05-06T05:30:40.219Z,21.50
2018-05-06T05:31:40.452Z,21.27
2018-05-06T05:32:40.688Z,21.39
2018-05-06T05:33:40.922Z,21.48
2018-05-06T05:34:41.158Z,21.11
2018-05-06T05:35:41.394Z,20.81
2018-05-06T05:36:41.624Z,20.88
2018-05-06T05:37:41.861Z,20.75
2018-05-06T05:38:42.100Z,20.96
2018-05-06T05:39:42.329Z,21.29
2018-05-06T05:40:42.570Z,21.11
2018-05-06T05:41:42.801Z,21.05
2018-05-06T05:42:43.042Z,21.18
2018-05-06T05:43:43.274Z,21.32
2018-05-06T05:44:43.507Z,21.80
2018-05-06T05:45:43.747Z,21.83
2018-05-06T05:46:43.981Z,22.20
2018-05-06T05:47:44.289Z,22.32
2018-05-06T05:48:44.455Z,22.59
2018-05-06T05:49:44.686Z,22.47
2018-05-06T05:50:44.923Z,22.28
2018-05-06T05:51:45.158Z,22.32
2018-05-06T05:52:45.391Z,22.18
2018-05-06T05:53:45.628Z,21.83
2018-05-06T05:54:45.866Z,21.85
2018-05-06T05:55:46.100Z,21.61
2018-05-06T05:56:46.334Z,21.66
2018-05-06T05:57:46.568Z,21.85
2018-05-06T05:58:46.810Z,21.93
2018-05-06T05:59:47.042Z,21.92
2018-05-06T06:00:47.281Z,21.95
2018-05-06T06:01:47.523Z,21.46
2018-05-06T06:02:47.760Z,21.25
2018-05-06T06:03:48.000Z,21.51
2018-05-06T06:04:48.234Z,21.89
2018-05-06T06:05:48.481Z,21.93
2018-05-06T06:06:48.708Z,22.04
2018-05-06T06:07:48.947Z,22.33
2018-05-06T06:08:49.187Z,21.85
2018-05-06T06:09:49.473Z,22.28
2018-05-06T06:10:49.661Z,21.98
2018-05-06T06:11:49.895Z,21.95
2018-05-06T06:12:50.132Z,22.00
2018-05-06T06:13:50.370Z,21.99
2018-05-06T06:14:50.604Z,22.25
2018-05-06T06:15:50.841Z,22.51
2018-05-06T06:16:51.077Z,22.99
2018-05-06T06:17:51.313Z,23.03
2018-05-06T06:18:51.551Z,23.27
2018-05-06T06:19:51.787Z,23.55
2018-05-06T06:20:52.023Z,23.80
2018-05-06T06:21:52.259Z,24.36
2018-05-06T06:22:52.496Z,23.87
2018-05-06T06:23:52.732Z,23.88
2018-05-06T06:24:52.973Z,24.30
2018-05-06T06:25:53.210Z,24.57
2018-05-06T06:26:53.445Z,24.61
2018-05-06T06:27:53.675Z,24.16
2018-05-06T06:28:53.925Z,23.86
2018-05-06T06:29:54.163Z,23.93
2018-05-06T06:30:54.406Z,24.10
2018-05-06T06:31:54.634Z,24.21
2018-05-06T06:32:54.891Z,24.30
2018-05-06T06:33:55.106Z,24.32
2018-05-06T06:34:55.362Z,24.61
2018-05-06T06:35:55.597Z,24.63
2018-05-06T06:36:55.835Z,23.71
2018-05-06T06:37:56.094Z,23.86
2018-05-06T06:38:56.309Z,23.81
2018-05-06T06:39:56.549Z,23.92
2018-05-06T06:40:56.783Z,23.59
2018-05-06T06:41:57.022Z,23.21
2018-05-06T06:42:57.260Z,23.39
2018-05-06T06:43:57.500Z,23.21
2018-05-06T06:44:57.731Z,22.83
2018-05-06T06:45:57.975Z,22.83
2018-05-06T06:46:58.204Z,22.17
2018-05-06T06:47:58.471Z,21.58
2018-05-06T06:48:58.679Z,21.30
2018-05-06T06:49:58.915Z,20.97
2018-05-06T06:51:00.017Z,20.70
2018-05-06T06:51:59.378Z,20.41
2018-05-06T06:52:59.612Z,19.92
2018-05-06T06:53:59.848Z,19.37
2018-05-06T06:55:00.084Z,19.21
2018-05-06T06:56:00.317Z,19.19
2018-05-06T06:57:00.554Z,18.98
2018-05-06T06:58:00.788Z,19.07
2018-05-06T06:59:01.024Z,18.90
2018-05-06T07:00:01.260Z,18.98
2018-05-06T07:01:01.496Z,19.07
2018-05-06T07:02:01.727Z,19.22
2018-05-06T07:03:01.964Z,19.19
2018-05-06T07:04:02.196Z,19.22
2018-05-06T07:05:02.430Z,19.24
2018-05-06T07:06:02.662Z,19.29
2018-05-06T07:07:02.895Z,19.39
2018-05-06T07:08:03.128Z,19.18
2018-05-06T07:09:03.364Z,18.99
2018-05-06T07:10:03.605Z,18.62
2018-05-06T07:11:03.837Z,18.23
2018-05-06T07:12:04.075Z,18.25
2018-05-06T07:13:04.311Z,18.05
2018-05-06T07:14:04.543Z,18.05
2018-05-06T07:15:04.777Z,18.11
2018-05-06T07:16:05.009Z,17.95
2018-05-06T07:17:05.243Z,18.11
2018-05-06T07:18:05.478Z,18.35
2018-05-06T07:19:05.710Z,18.43
2018-05-06T07:20:05.945Z,18.45
2018-05-06T07:21:06.184Z,18.58
2018-05-06T07:22:06.412Z,18.65
2018-05-06T07:23:06.639Z,18.63
2018-05-06T07:24:06.871Z,18.63
2018-05-06T07:25:07.103Z,18.50
2018-05-06T07:26:07.335Z,18.44
2018-05-06T07:27:07.567Z,18.25
2018-05-06T07:28:07.797Z,18.05
2018-05-06T07:29:08.033Z,18.03
2018-05-06T07:30:08.266Z,18.18
2018-05-06T07:31:08.500Z,18.16
2018-05-06T07:32:08.731Z,18.43
2018-05-06T07:33:08.971Z,18.41
2018-05-06T07:34:09.198Z,18.47
2018-05-06T07:35:09.429Z,18.45
2018-05-06T07:36:09.663Z,18.47
2018-05-06T07:37:09.894Z,18.53
2018-05-06T07:38:10.131Z,18.60
2018-05-06T07:39:10.368Z,18.55
2018-05-06T07:40:10.597Z,18.59
2018-05-06T07:41:10.837Z,18.75
2018-05-06T07:42:11.060Z,18.83
2018-05-06T07:43:11.287Z,18.77
2018-05-06T07:44:11.526Z,18.89
2018-05-06T07:45:11.762Z,18.90
2018-05-06T07:46:11.995Z,18.90
2018-05-06T07:47:12.224Z,19.09
2018-05-06T07:48:12.456Z,19.15
2018-05-06T07:49:12.688Z,19.16
2018-05-06T07:50:12.923Z,19.15
2018-05-06T07:51:13.155Z,19.15
2018-05-06T07:52:13.391Z,19.21
2018-05-06T07:53:13.633Z,19.00
2018-05-06T07:54:13.852Z,19.15
2018-05-06T07:55:14.084Z,19.21
2018-05-06T07:56:14.316Z,19.19
2018-05-06T07:57:14.550Z,19.26
2018-05-06T07:58:14.779Z,19.36
2018-05-06T07:59:15.014Z,19.41
2018-05-06T08:00:15.246Z,19.36
2018-05-06T08:01:15.477Z,19.34
2018-05-06T08:02:15.718Z,19.51
2018-05-06T08:03:15.942Z,19.21
2018-05-06T08:04:16.181Z,19.34
2018-05-06T08:05:16.419Z,19.24
2018-05-06T08:06:16.641Z,19.19
2018-05-06T08:07:16.878Z,19.30
2018-05-06T08:08:17.111Z,19.27
2018-05-06T08:09:17.351Z,19.34
2018-05-06T08:10:17.582Z,19.41
2018-05-06T08:11:17.815Z,19.27
2018-05-06T08:12:18.050Z,19.19
2018-05-06T08:13:18.287Z,19.18
2018-05-06T08:14:18.515Z,19.22
2018-05-06T08:15:18.751Z,19.39
2018-05-06T08:16:19.004Z,19.31
2018-05-06T08:17:19.219Z,19.27
2018-05-06T08:18:19.448Z,19.39
2018-05-06T08:19:19.687Z,19.40
2018-05-06T08:20:19.918Z,19.55
2018-05-06T08:21:20.153Z,19.62
2018-05-06T08:22:20.383Z,19.63
2018-05-06T08:23:20.625Z,19.73
2018-05-06T08:24:20.848Z,19.62
2018-05-06T08:25:21.081Z,19.34
2018-05-06T08:26:21.320Z,19.37
2018-05-06T08:27:21.550Z,19.39
2018-05-06T08:28:21.790Z,19.34
2018-05-06T08:29:22.012Z,19.41
2018-05-06T08:30:22.282Z,19.45
2018-05-06T08:31:22.470Z,19.37
2018-05-06T08:32:22.703Z,19.40
2018-05-06T08:33:22.936Z,19.47
2018-05-06T08:34:23.172Z,19.47
2018-05-06T08:35:23.402Z,19.39
2018-05-06T08:36:23.639Z,19.54
2018-05-06T08:37:23.875Z,19.76
2018-05-06T08:38:24.110Z,19.63
2018-05-06T08:39:24.335Z,19.73
2018-05-06T08:40:24.571Z,19.76
2018-05-06T08:41:24.806Z,19.77
2018-05-06T08:42:25.038Z,19.76
2018-05-06T08:43:25.268Z,19.84
2018-05-06T08:44:26.046Z,19.96
2018-05-06T08:45:25.778Z,20.00
2018-05-06T08:46:26.013Z,20.00
2018-05-06T08:47:26.244Z,19.92
2018-05-06T08:48:26.477Z,19.86
2018-05-06T08:49:26.709Z,20.13
2018-05-06T08:50:26.952Z,20.18
2018-05-06T08:51:27.188Z,20.18
2018-05-06T08:52:27.416Z,20.26
2018-05-06T08:53:27.647Z,20.06
2018-05-06T08:54:27.876Z,20.19
2018-05-06T08:55:28.109Z,20.22
2018-05-06T08:56:28.349Z,20.14
2018-05-06T08:57:28.581Z,19.94
2018-05-06T08:58:28.819Z,19.89
2018-05-06T08:59:29.061Z,19.81
2018-05-06T09:00:29.296Z,19.89
2018-05-06T09:01:29.527Z,19.79
2018-05-06T09:02:29.761Z,19.76
2018-05-06T09:03:30.009Z,19.69
2018-05-06T09:04:30.236Z,19.73
2018-05-06T09:05:30.472Z,19.70
2018-05-06T09:06:30.704Z,19.76
2018-05-06T09:07:30.938Z,19.73
2018-05-06T09:08:31.167Z,19.77
2018-05-06T09:09:31.397Z,19.81
2018-05-06T09:10:31.630Z,19.88
2018-05-06T09:11:31.863Z,19.88
2018-05-06T09:12:32.112Z,20.00
2018-05-06T09:13:32.328Z,20.07
2018-05-06T09:14:32.559Z,20.04
2018-05-06T09:15:32.802Z,20.03
2018-05-06T09:16:33.040Z,19.92
2018-05-06T09:17:33.272Z,19.92
2018-05-06T09:18:33.501Z,19.89
2018-05-06T09:19:33.736Z,20.07
2018-05-06T09:20:33.971Z,20.14
2018-05-06T09:21:34.202Z,20.25
2018-05-06T09:22:34.439Z,20.21
2018-05-06T09:23:34.680Z,20.14
2018-05-06T09:24:34.908Z,20.07
2018-05-06T09:25:35.202Z,20.19
2018-05-06T09:26:35.383Z,20.31
2018-05-06T09:27:35.605Z,20.24
2018-05-06T09:28:35.835Z,20.28
2018-05-06T09:29:36.069Z,20.21
2018-05-06T09:30:36.306Z,20.24
2018-05-06T09:31:36.549Z,20.16
2018-05-06T09:32:36.760Z,20.25
2018-05-06T09:33:37.005Z,20.21
2018-05-06T09:34:37.240Z,20.36
2018-05-06T09:35:37.474Z,20.29
2018-05-06T09:36:37.703Z,20.37
2018-05-06T09:37:37.965Z,20.55
2018-05-06T09:38:38.161Z,20.63
2018-05-06T09:39:38.400Z,20.65
2018-05-06T09:40:38.638Z,20.59
2018-05-06T09:41:38.870Z,20.77
2018-05-06T09:42:39.111Z,20.75
2018-05-06T09:43:39.353Z,20.90
2018-05-06T09:44:39.590Z,20.92
2018-05-06T09:45:39.812Z,20.78
2018-05-06T09:46:40.051Z,20.65
2018-05-06T09:47:40.377Z,20.62
2018-05-06T09:48:40.511Z,20.69
2018-05-06T09:49:40.747Z,20.72
2018-05-06T09:50:40.978Z,20.65
2018-05-06T09:51:41.208Z,20.80
2018-05-06T09:52:41.442Z,20.92
2018-05-06T09:53:41.742Z,20.78
2018-05-06T09:54:41.918Z,20.96
2018-05-06T09:55:42.146Z,20.95
2018-05-06T09:56:42.385Z,20.84
2018-05-06T09:57:42.619Z,20.84
2018-05-06T09:58:42.861Z,20.82
2018-05-06T09:59:43.082Z,20.81
2018-05-06T10:00:43.313Z,20.63
2018-05-06T10:01:43.545Z,20.65
2018-05-06T10:02:43.777Z,20.63
2018-05-06T10:03:44.023Z,20.90
2018-05-06T10:04:44.243Z,21.05
2018-05-06T10:05:44.478Z,21.20
2018-05-06T10:06:44.711Z,21.14
2018-05-06T10:07:44.945Z,21.24
2018-05-06T10:08:45.177Z,21.33
2018-05-06T10:09:45.423Z,21.32
2018-05-06T10:10:45.641Z,21.30
2018-05-06T10:11:45.877Z,21.18
2018-05-06T10:12:46.128Z,21.17
2018-05-06T10:13:46.342Z,21.05
2018-05-06T10:14:46.579Z,21.03
2018-05-06T10:15:46.877Z,20.93
2018-05-06T10:16:47.050Z,20.92
2018-05-06T10:17:47.278Z,20.90
2018-05-06T10:18:47.509Z,21.02
2018-05-06T10:19:47.738Z,21.14
2018-05-06T10:20:47.971Z,21.03
2018-05-06T10:21:48.204Z,21.03
2018-05-06T10:22:48.440Z,21.14
2018-05-06T10:23:48.667Z,21.05
2018-05-06T10:24:48.893Z,21.09
2018-05-06T10:25:49.133Z,21.11
2018-05-06T10:26:49.368Z,21.14
2018-05-06T10:27:49.602Z,21.22
2018-05-06T10:28:49.838Z,21.12
2018-05-06T10:29:50.073Z,21.07
2018-05-06T10:30:50.307Z,21.24
2018-05-06T10:31:50.560Z,21.37
2018-05-06T10:32:50.770Z,21.42
2018-05-06T10:33:51.002Z,21.40
2018-05-06T10:34:51.236Z,21.52
2018-05-06T10:35:51.509Z,21.48
2018-05-06T10:36:51.700Z,21.46
2018-05-06T10:37:51.933Z,21.51
2018-05-06T10:38:52.166Z,21.46
2018-05-06T10:39:52.402Z,21.33
2018-05-06T10:40:52.637Z,21.45
2018-05-06T10:41:52.868Z,21.42
2018-05-06T10:42:53.102Z,21.32
2018-05-06T10:43:53.376Z,21.46
2018-05-06T10:44:53.559Z,21.51
2018-05-06T10:45:53.819Z,21.42
2018-05-06T10:46:54.027Z,21.42
2018-05-06T10:47:54.254Z,21.55
2018-05-06T10:48:54.485Z,21.52
2018-05-06T10:49:54.714Z,21.51
2018-05-06T10:50:54.947Z,21.43
2018-05-06T10:51:55.179Z,21.60
2018-05-06T10:52:55.407Z,21.69
2018-05-06T10:53:55.641Z,21.75
2018-05-06T10:54:55.876Z,21.91
2018-05-06T10:55:56.111Z,21.91
2018-05-06T10:56:56.346Z,21.64
2018-05-06T10:57:56.651Z,21.61
2018-05-06T10:58:56.815Z,21.55
2018-05-06T10:59:57.048Z,21.52
2018-05-06T11:00:57.282Z,21.48
2018-05-06T11:01:57.510Z,21.48
2018-05-06T11:02:57.744Z,21.52
2018-05-06T11:03:58.052Z,21.50
2018-05-06T11:04:58.212Z,21.50
2018-05-06T11:05:58.445Z,21.51
2018-05-06T11:06:58.678Z,21.46
2018-05-06T11:07:58.912Z,21.55
2018-05-06T11:08:59.149Z,21.54
2018-05-06T11:09:59.385Z,21.45
2018-05-06T11:10:59.610Z,21.50
2018-05-06T11:11:59.849Z,21.54
2018-05-06T11:13:00.080Z,21.42
2018-05-06T11:14:00.315Z,21.58
2018-05-06T11:15:00.551Z,21.69
2018-05-06T11:16:00.779Z,21.70
2018-05-06T11:17:01.013Z,21.67
2018-05-06T11:18:01.246Z,21.60
2018-05-06T11:19:01.477Z,21.64
2018-05-06T11:20:01.706Z,21.75
2018-05-06T11:21:01.943Z,21.85
2018-05-06T11:22:02.176Z,21.83
2018-05-06T11:23:02.412Z,21.85
2018-05-06T11:24:02.645Z,21.88
2018-05-06T11:25:02.878Z,21.92
2018-05-06T11:26:03.115Z,21.91
2018-05-06T11:27:03.352Z,22.00
2018-05-06T11:28:03.583Z,21.91
2018-05-06T11:29:03.820Z,21.88
2018-05-06T11:30:04.047Z,21.77
2018-05-06T11:31:04.279Z,21.85
2018-05-06T11:32:04.512Z,21.91
2018-05-06T11:33:04.747Z,21.91
2018-05-06T11:34:04.983Z,21.75
2018-05-06T11:35:05.215Z,21.73
2018-05-06T11:36:05.449Z,21.76
2018-05-06T11:37:05.700Z,21.91
2018-05-06T11:38:05.903Z,21.93
2018-05-06T11:39:06.137Z,21.79
2018-05-06T11:40:06.373Z,21.92
2018-05-06T11:41:06.633Z,21.83
2018-05-06T11:42:06.842Z,22.00
2018-05-06T11:43:07.090Z,22.06
2018-05-06T11:44:07.307Z,22.11
2018-05-06T11:45:07.540Z,22.06
2018-05-06T11:46:07.775Z,22.10
2018-05-06T11:47:08.008Z,22.06
2018-05-06T11:48:08.297Z,22.22
2018-05-06T11:49:08.473Z,22.18
2018-05-06T11:50:08.711Z,22.18
2018-05-06T11:51:08.949Z,22.20
2018-05-06T11:52:09.181Z,22.15
2018-05-06T11:53:09.408Z,22.07
2018-05-06T11:54:09.643Z,22.02
2018-05-06T11:55:09.873Z,21.85
2018-05-06T11:56:10.116Z,21.96
2018-05-06T11:57:10.353Z,21.85
2018-05-06T11:58:10.583Z,21.93
2018-05-06T11:59:10.820Z,21.89
2018-05-06T12:00:11.054Z,21.93
2018-05-06T12:01:11.287Z,21.77
2018-05-06T12:02:11.522Z,21.77
2018-05-06T12:03:11.756Z,21.72
2018-05-06T12:04:11.992Z,21.92
2018-05-06T12:05:12.223Z,21.88
2018-05-06T12:06:12.464Z,21.99
2018-05-06T12:07:12.696Z,21.99
2018-05-06T12:08:12.927Z,21.99
2018-05-06T12:09:13.163Z,22.13
2018-05-06T12:10:13.394Z,21.96
2018-05-06T12:11:13.628Z,22.06
2018-05-06T12:12:13.859Z,22.08
2018-05-06T12:13:14.093Z,22.00
2018-05-06T12:14:14.324Z,21.98
2018-05-06T12:15:14.555Z,21.88
2018-05-06T12:16:14.786Z,21.80
2018-05-06T12:17:15.026Z,21.96
2018-05-06T12:18:15.263Z,21.88
2018-05-06T12:19:15.507Z,21.92
2018-05-06T12:20:15.740Z,22.02
2018-05-06T12:21:15.947Z,21.96
2018-05-06T12:22:16.180Z,22.00
2018-05-06T12:23:16.424Z,22.07
2018-05-06T12:24:16.674Z,22.04
2018-05-06T12:25:16.885Z,22.14
2018-05-06T12:26:17.112Z,22.20
2018-05-06T12:27:17.340Z,22.08
2018-05-06T12:28:17.583Z,22.06
2018-05-06T12:29:17.806Z,22.20
2018-05-06T12:30:18.047Z,22.20
2018-05-06T12:31:18.296Z,22.18
2018-05-06T12:32:18.552Z,22.23
2018-05-06T12:33:18.786Z,22.29
2018-05-06T12:34:19.025Z,22.15
2018-05-06T12:35:19.258Z,22.23
2018-05-06T12:36:19.491Z,22.18
2018-05-06T12:37:19.724Z,22.23
2018-05-06T12:38:19.957Z,22.28
2018-05-06T12:39:20.191Z,22.32
2018-05-06T12:40:20.423Z,22.45
2018-05-06T12:41:20.658Z,22.53
2018-05-06T12:42:20.890Z,22.45
2018-05-06T12:43:21.133Z,22.36
2018-05-06T12:44:21.359Z,22.28
2018-05-06T12:45:21.595Z,22.23
2018-05-06T12:46:21.828Z,22.20
2018-05-06T12:47:22.058Z,22.15
2018-05-06T12:48:22.296Z,22.23
2018-05-06T12:49:22.558Z,22.41
2018-05-06T12:50:22.765Z,22.32
2018-05-06T12:51:22.985Z,22.30
2018-05-06T12:52:23.226Z,22.22
2018-05-06T12:53:23.460Z,22.28
2018-05-06T12:54:23.696Z,22.33
2018-05-06T12:55:23.958Z,22.32
2018-05-06T12:56:24.166Z,22.43
2018-05-06T12:57:24.397Z,22.36